Time;durP1;ratioP1;P1;durP2;ratioP2;P2;SDS_P1;SDS_P2;PMS_P1;PMS_P2;Temp;Humidity;BMP_temperature;BMP_pressure;BME280_temperature;BME280_humidity;BME280_pressure;Samples;Min_cycle;Max_cycle;Signal;HPM_P1;HPM_P2
2023/05/01 00:01:33;;;;;;;;;;;;;;;9.49;100.00;100684.47;5610609;31;34034;-73
2023/05/01 00:04:37;;;;;;;;;;;;;;;9.49;100.00;100683.63;5610596;31;33935;-73
2023/05/01 00:07:39;;;;;;;;;;;;;;;9.48;100.00;100682.00;5610588;31;34134;-73
2023/05/01 00:10:43;;;;;;;;;;;;;;;9.45;100.00;100675.16;5610538;31;34799;-73
2023/05/01 00:13:45;;;;;;;;;;;;;;;9.41;100.00;100673.81;5610504;31;33984;-71
2023/05/01 00:16:48;;;;;;;;;;;;;;;9.48;100.00;100674.03;5610891;31;34114;-72
2023/05/01 00:19:52;;;;;;;;;;;;;;;9.64;100.00;100674.16;5610550;31;33971;-72
2023/05/01 00:22:55;;;;;;;;;;;;;;;9.81;100.00;100675.09;5610357;31;34081;-73
2023/05/01 00:25:57;;;;;;;;;;;;;;;9.79;100.00;100666.47;5610331;31;34704;-72
2023/05/01 00:29:00;;;;;;;;;;;;;;;9.68;100.00;100669.41;5610285;31;34576;-73
2023/05/01 00:32:04;;;;;;;;;;;;;;;9.56;100.00;100674.09;5610300;31;34116;-73
2023/05/01 00:35:07;;;;;;;;;;;;;;;9.47;100.00;100669.72;5610522;31;34010;-73
2023/05/01 00:38:09;;;;;;;;;;;;;;;9.34;100.00;100667.47;5610217;31;34687;-72
2023/05/01 00:41:12;;;;;;;;;;;;;;;9.27;100.00;100669.06;5610311;31;34180;-73
2023/05/01 00:44:15;;;;;;;;;;;;;;;9.21;100.00;100663.53;5609837;31;34079;-73
2023/05/01 00:47:18;;;;;;;;;;;;;;;9.15;100.00;100670.25;5610208;31;33961;-72
2023/05/01 00:50:21;;;;;;;;;;;;;;;9.07;100.00;100672.84;5610207;31;32779;-72
2023/05/01 00:53:25;;;;;;;;;;;;;;;8.98;100.00;100664.00;5610117;31;34053;-72
2023/05/01 00:56:28;;;;;;;;;;;;;;;8.92;100.00;100669.03;5610348;31;33683;-73
2023/05/01 00:59:30;;;;;;;;;;;;;;;8.86;100.00;100674.97;5610003;31;34145;-72
2023/05/01 01:02:33;;;;;;;;;;;;;;;8.82;100.00;100671.75;5610047;31;35415;-72
2023/05/01 01:05:39;;;;;;;;;;;;;;;8.84;100.00;100677.75;5609579;31;34786;-72
2023/05/01 01:08:45;;;;;;;;;;;;;;;8.77;100.00;100670.53;5609538;31;34006;-72
2023/05/01 01:11:55;;;;;;;;;;;;;;;8.65;100.00;100673.41;5609932;31;34628;-72
2023/05/01 01:15:06;;;;;;;;;;;;;;;8.64;100.00;100666.44;5609865;31;34796;-72
2023/05/01 01:18:18;;;;;;;;;;;;;;;8.59;100.00;100678.44;5609947;31;33904;-72
2023/05/01 01:21:41;;;;;;;;;;;;;;;8.56;100.00;100663.72;5609872;31;33978;-72
2023/05/01 01:24:44;;;;;;;;;;;;;;;8.52;100.00;100675.56;5609786;31;34052;-72
2023/05/01 01:28:06;;;;;;;;;;;;;;;8.54;100.00;100668.31;5609858;31;33729;-72
2023/05/01 01:31:12;;;;;;;;;;;;;;;8.52;100.00;100667.63;5610148;31;34697;-72
2023/05/01 01:34:19;;;;;;;;;;;;;;;8.51;100.00;100673.91;5609783;31;34214;-72
2023/05/01 01:37:22;;;;;;;;;;;;;;;8.46;100.00;100665.59;5610120;31;34675;-72
2023/05/01 01:40:26;;;;;;;;;;;;;;;8.37;100.00;100658.53;5609772;31;33931;-72
2023/05/01 01:43:34;;;;;;;;;;;;;;;8.42;100.00;100663.38;5609501;31;34306;-73
2023/05/01 01:46:39;;;;;;;;;;;;;;;8.39;100.00;100664.50;5609655;31;34001;-72
2023/05/01 01:49:48;;;;;;;;;;;;;;;8.40;100.00;100667.97;5609612;31;34076;-73
2023/05/01 01:52:52;;;;;;;;;;;;;;;8.40;100.00;100670.63;5609561;31;34083;-72
2023/05/01 01:55:56;;;;;;;;;;;;;;;8.54;100.00;100675.41;5609578;31;34143;-72
2023/05/01 01:59:00;;;;;;;;;;;;;;;8.45;100.00;100677.13;5609460;31;34736;-73
2023/05/01 02:02:03;;;;;;;;;;;;;;;8.39;100.00;100671.59;5609553;31;34997;-72
2023/05/01 02:05:07;;;;;;;;;;;;;;;8.38;100.00;100675.19;5609432;31;34726;-72
2023/05/01 02:08:10;;;;;;;;;;;;;;;8.41;100.00;100661.72;5609466;31;34089;-72
2023/05/01 02:11:14;;;;;;;;;;;;;;;8.42;100.00;100677.44;5609779;31;34044;-72
2023/05/01 02:14:17;;;;;;;;;;;;;;;8.57;100.00;100670.66;5609451;31;34072;-72
2023/05/01 02:17:20;;;;;;;;;;;;;;;8.57;100.00;100667.16;5595597;31;34000;-73
2023/05/01 02:20:23;;;;;;;;;;;;;;;8.60;100.00;100667.72;5609504;31;34655;-72
2023/05/01 02:23:27;;;;;;;;;;;;;;;8.61;100.00;100669.41;5609124;31;34614;-72
2023/05/01 02:26:30;;;;;;;;;;;;;;;8.75;100.00;100662.78;5609194;31;34033;-73
2023/05/01 02:29:34;;;;;;;;;;;;;;;9.03;100.00;100666.19;5609520;31;34723;-73
2023/05/01 02:32:37;;;;;;;;;;;;;;;9.08;100.00;100664.75;5609105;31;34079;-73
2023/05/01 02:35:41;;;;;;;;;;;;;;;9.14;100.00;100673.91;5609025;31;34627;-72
2023/05/01 02:38:46;;;;;;;;;;;;;;;9.19;100.00;100670.81;5609053;31;34661;-73
2023/05/01 02:41:48;;;;;;;;;;;;;;;9.25;100.00;100672.81;5608920;31;34575;-73
2023/05/01 02:45:03;;;;;;;;;;;;;;;9.33;100.00;100676.41;5608663;31;34096;-72
2023/05/01 02:48:06;;;;;;;;;;;;;;;9.37;100.00;100680.41;5608789;31;34152;-72
2023/05/01 02:51:10;;;;;;;;;;;;;;;9.46;100.00;100673.34;5608973;31;34650;-72
2023/05/01 02:54:15;;;;;;;;;;;;;;;9.54;100.00;100673.41;5608691;31;34060;-72
2023/05/01 02:57:19;;;;;;;;;;;;;;;9.69;100.00;100674.50;5608881;31;34100;-72
2023/05/01 03:00:22;;;;;;;;;;;;;;;9.68;100.00;100680.00;5594832;31;34645;-72
2023/05/01 03:03:26;;;;;;;;;;;;;;;9.71;100.00;100685.81;5594679;31;34093;-72
2023/05/01 03:06:29;;;;;;;;;;;;;;;9.64;100.00;100683.91;5608537;31;34084;-73
2023/05/01 03:09:32;;;;;;;;;;;;;;;9.62;100.00;100688.53;5608467;31;34774;-73
2023/05/01 03:12:36;;;;;;;;;;;;;;;9.54;100.00;100692.78;5608743;31;33985;-72
2023/05/01 03:15:39;;;;;;;;;;;;;;;9.45;100.00;100685.75;5608396;31;34092;-71
2023/05/01 03:18:41;;;;;;;;;;;;;;;9.56;100.00;100685.53;5608326;31;34088;-72
2023/05/01 03:21:44;;;;;;;;;;;;;;;9.51;100.00;100682.50;5594631;31;33492;-73
2023/05/01 03:24:46;;;;;;;;;;;;;;;9.37;100.00;100683.06;5608430;31;34068;-72
2023/05/01 03:27:49;;;;;;;;;;;;;;;9.19;100.00;100687.53;5608445;31;33995;-72
2023/05/01 03:30:51;;;;;;;;;;;;;;;9.03;100.00;100693.50;5595824;31;34967;-72
2023/05/01 03:33:54;;;;;;;;;;;;;;;8.93;100.00;100703.31;5610906;31;33974;-72
2023/05/01 03:36:57;;;;;;;;;;;;;;;8.89;100.00;100695.81;5610773;31;34066;-72
2023/05/01 03:40:00;;;;;;;;;;;;;;;8.71;100.00;100699.25;5610906;31;34110;-72
2023/05/01 03:43:03;;;;;;;;;;;;;;;8.62;100.00;100701.94;5610916;31;34116;-72
2023/05/01 03:46:07;;;;;;;;;;;;;;;8.58;100.00;100711.16;5611007;31;34196;-73
2023/05/01 03:49:09;;;;;;;;;;;;;;;8.58;100.00;100701.41;5610748;31;34137;-72
2023/05/01 03:52:13;;;;;;;;;;;;;;;8.54;100.00;100702.69;5611152;31;34745;-73
2023/05/01 03:55:16;;;;;;;;;;;;;;;8.44;100.00;100695.78;5610694;31;34122;-72
2023/05/01 03:58:21;;;;;;;;;;;;;;;8.63;100.00;100707.09;5610923;31;34235;-72
2023/05/01 04:01:24;;;;;;;;;;;;;;;8.71;100.00;100704.53;5596762;31;34774;-72
2023/05/01 04:04:28;;;;;;;;;;;;;;;8.60;100.00;100702.13;5610500;31;34149;-72
2023/05/01 04:07:31;;;;;;;;;;;;;;;8.67;100.00;100710.28;5610842;31;34663;-71
2023/05/01 04:10:34;;;;;;;;;;;;;;;8.57;100.00;100705.03;5610441;31;34018;-72
2023/05/01 04:13:37;;;;;;;;;;;;;;;8.70;100.00;100710.81;5596603;31;34143;-72
2023/05/01 04:16:40;;;;;;;;;;;;;;;8.71;100.00;100707.19;5610637;31;34094;-72
2023/05/01 04:19:46;;;;;;;;;;;;;;;8.74;100.00;100698.13;5596645;31;34306;-73
2023/05/01 04:22:49;;;;;;;;;;;;;;;8.78;100.00;100702.13;5610484;31;34205;-73
2023/05/01 04:25:51;;;;;;;;;;;;;;;8.82;100.00;100700.84;5610224;31;34797;-72
2023/05/01 04:28:54;;;;;;;;;;;;;;;8.78;100.00;100706.59;5610358;31;34161;-72
2023/05/01 04:31:57;;;;;;;;;;;;;;;8.79;100.00;100706.47;5610252;31;34055;-70
2023/05/01 04:35:00;;;;;;;;;;;;;;;8.99;100.00;100713.31;5610539;31;34289;-72
2023/05/01 04:38:02;;;;;;;;;;;;;;;8.98;100.00;100714.28;5610535;31;34335;-73
2023/05/01 04:41:05;;;;;;;;;;;;;;;9.07;100.00;100717.84;5596216;31;34668;-72
2023/05/01 04:44:07;;;;;;;;;;;;;;;8.82;100.00;100715.91;5609975;31;34140;-73
2023/05/01 04:47:10;;;;;;;;;;;;;;;8.82;100.00;100719.38;5610228;31;34036;-72
2023/05/01 04:50:13;;;;;;;;;;;;;;;8.89;100.00;100724.91;5610425;31;34137;-73
2023/05/01 04:53:16;;;;;;;;;;;;;;;9.05;100.00;100720.62;5610206;31;33955;-73
2023/05/01 04:56:18;;;;;;;;;;;;;;;9.13;100.00;100727.81;5610068;31;34293;-73
2023/05/01 04:59:22;;;;;;;;;;;;;;;9.21;100.00;100727.91;5610028;31;34778;-72
2023/05/01 05:02:24;;;;;;;;;;;;;;;9.35;100.00;100721.25;5610088;31;34359;-73
2023/05/01 05:05:28;;;;;;;;;;;;;;;9.34;100.00;100730.19;5609940;31;34377;-72
2023/05/01 05:08:30;;;;;;;;;;;;;;;9.47;100.00;100736.78;5610393;31;34117;-72
2023/05/01 05:11:34;;;;;;;;;;;;;;;9.57;100.00;100740.16;5609882;31;34264;-72
2023/05/01 05:14:37;;;;;;;;;;;;;;;9.63;100.00;100736.09;5610333;31;34801;-72
2023/05/01 05:17:40;;;;;;;;;;;;;;;9.64;100.00;100744.84;5596065;31;34188;-71
2023/05/01 05:20:43;;;;;;;;;;;;;;;9.77;100.00;100745.28;5596448;31;34177;-72
2023/05/01 05:23:46;;;;;;;;;;;;;;;9.74;100.00;100738.47;5610264;31;34088;-72
2023/05/01 05:26:48;;;;;;;;;;;;;;;9.82;100.00;100743.00;5609744;31;33929;-72
2023/05/01 05:29:51;;;;;;;;;;;;;;;9.92;100.00;100741.91;5610117;31;35043;-72
2023/05/01 05:32:54;;;;;;;;;;;;;;;10.13;100.00;100754.81;5609754;31;34122;-72
2023/05/01 05:35:57;;;;;;;;;;;;;;;10.23;100.00;100752.09;5609702;31;34839;-71
2023/05/01 05:39:00;;;;;;;;;;;;;;;10.21;100.00;100760.22;5609628;31;34170;-72
2023/05/01 05:42:03;;;;;;;;;;;;;;;10.29;100.00;100756.78;5609651;31;34738;-71
2023/05/01 05:45:07;;;;;;;;;;;;;;;10.50;100.00;100761.72;5609540;31;33762;-71
2023/05/01 05:48:10;;;;;;;;;;;;;;;10.73;100.00;100762.81;5609423;31;34307;-72
2023/05/01 05:51:13;;;;;;;;;;;;;;;10.70;100.00;100765.78;5609751;31;35128;-71
2023/05/01 05:54:16;;;;;;;;;;;;;;;10.81;100.00;100768.97;5608767;31;34217;-71
2023/05/01 05:57:19;;;;;;;;;;;;;;;10.89;100.00;100771.66;5609786;31;34233;-71
2023/05/01 06:00:22;;;;;;;;;;;;;;;11.02;100.00;100759.78;5609296;31;34218;-72
2023/05/01 06:03:26;;;;;;;;;;;;;;;11.25;100.00;100764.31;5609268;31;34462;-71
2023/05/01 06:06:30;;;;;;;;;;;;;;;11.52;100.00;100762.37;5609171;31;34272;-72
2023/05/01 06:09:33;;;;;;;;;;;;;;;11.60;100.00;100759.72;5609326;31;34462;-72
2023/05/01 06:12:37;;;;;;;;;;;;;;;11.81;100.00;100761.94;5609563;31;34224;-71
2023/05/01 06:15:48;;;;;;;;;;;;;;;11.81;100.00;100767.25;5596659;31;33974;-72
2023/05/01 06:18:51;;;;;;;;;;;;;;;12.08;100.00;100774.88;5609173;31;34083;-71
2023/05/01 06:21:54;;;;;;;;;;;;;;;12.15;92.59;100770.53;5609121;31;34813;-74
2023/05/01 06:24:56;;;;;;;;;;;;;;;12.34;88.64;100770.19;5609091;31;34142;-71
2023/05/01 06:28:00;;;;;;;;;;;;;;;12.57;88.28;100771.12;5609419;31;34118;-71
2023/05/01 06:31:04;;;;;;;;;;;;;;;12.59;85.59;100777.06;5609095;31;34129;-71
2023/05/01 06:34:08;;;;;;;;;;;;;;;12.74;81.68;100776.34;5609058;31;34086;-71
2023/05/01 06:37:10;;;;;;;;;;;;;;;12.87;75.38;100779.31;5608948;31;34063;-73
2023/05/01 06:40:13;;;;;;;;;;;;;;;13.12;72.51;100775.56;5608468;31;34712;-72
2023/05/01 06:43:16;;;;;;;;;;;;;;;13.20;73.83;100777.38;5608334;31;34163;-72
2023/05/01 06:46:19;;;;;;;;;;;;;;;13.28;72.81;100779.97;5595182;31;34130;-72
2023/05/01 06:49:23;;;;;;;;;;;;;;;13.42;73.96;100784.53;5608763;31;34285;-72
2023/05/01 06:52:26;;;;;;;;;;;;;;;13.66;72.07;100779.06;5608563;31;34130;-71
2023/05/01 06:55:30;;;;;;;;;;;;;;;13.79;69.97;100771.31;5608581;31;34144;-74
2023/05/01 06:58:35;;;;;;;;;;;;;;;13.99;64.30;100779.59;5608549;31;34088;-73
2023/05/01 07:01:37;;;;;;;;;;;;;;;14.58;64.31;100777.88;5608613;31;33978;-72
2023/05/01 07:04:43;;;;;;;;;;;;;;;14.73;60.50;100784.06;5609032;31;34021;-73
2023/05/01 07:07:45;;;;;;;;;;;;;;;15.42;60.49;100781.00;5597209;31;34047;-73
2023/05/01 07:11:02;;;;;;;;;;;;;;;15.62;57.96;100782.91;5611010;31;34069;-73
2023/05/01 07:14:04;;;;;;;;;;;;;;;16.36;54.91;100787.84;5610856;31;34814;-71
2023/05/01 07:17:08;;;;;;;;;;;;;;;17.34;52.03;100784.84;5610828;31;34807;-74
2023/05/01 07:20:11;;;;;;;;;;;;;;;16.72;51.24;100782.31;5610649;31;34611;-71
2023/05/01 07:23:14;;;;;;;;;;;;;;;16.76;51.22;100789.75;5610832;31;34090;-73
2023/05/01 07:26:16;;;;;;;;;;;;;;;17.51;44.62;100782.63;5610831;31;34070;-73
2023/05/01 07:29:19;;;;;;;;;;;;;;;17.83;43.81;100787.25;5597330;31;34125;-73
2023/05/01 07:32:21;;;;;;;;;;;;;;;17.98;44.07;100771.78;5596861;31;34713;-70
2023/05/01 07:35:25;;;;;;;;;;;;;;;18.75;42.43;100781.00;5611130;31;34312;-71
2023/05/01 07:38:27;;;;;;;;;;;;;;;19.92;38.19;100789.53;5610912;31;34689;-71
2023/05/01 07:41:30;;;;;;;;;;;;;;;19.71;39.63;100782.63;5596960;31;34763;-73
2023/05/01 07:44:32;;;;;;;;;;;;;;;20.30;39.03;100779.50;5610207;31;34192;-73
2023/05/01 07:47:35;;;;;;;;;;;;;;;20.24;36.80;100776.81;5610364;31;34682;-73
2023/05/01 07:50:37;;;;;;;;;;;;;;;20.11;37.26;100779.63;5610334;31;34128;-73
2023/05/01 07:53:41;;;;;;;;;;;;;;;20.32;35.98;100781.97;5596901;31;34827;-72
2023/05/01 07:56:43;;;;;;;;;;;;;;;20.30;35.91;100786.72;5596492;31;34328;-72
2023/05/01 07:59:46;;;;;;;;;;;;;;;20.96;35.86;100781.47;5610405;31;34598;-72
2023/05/01 08:02:50;;;;;;;;;;;;;;;20.94;34.86;100782.75;5610382;31;34756;-72
2023/05/01 08:05:53;;;;;;;;;;;;;;;20.98;34.99;100773.16;5610271;31;34041;-71
2023/05/01 08:08:55;;;;;;;;;;;;;;;22.06;33.60;100782.06;5610452;31;34012;-73
2023/05/01 08:11:58;;;;;;;;;;;;;;;23.12;31.68;100781.75;5610704;31;34690;-72
2023/05/01 08:15:00;;;;;;;;;;;;;;;22.75;31.76;100783.94;5610119;31;34198;-73
2023/05/01 08:18:04;;;;;;;;;;;;;;;23.14;31.19;100781.50;5610439;31;34639;-72
2023/05/01 08:21:06;;;;;;;;;;;;;;;23.59;31.06;100781.56;5610249;31;34789;-73
2023/05/01 08:24:09;;;;;;;;;;;;;;;23.92;30.77;100781.59;5610295;31;34717;-73
2023/05/01 08:27:12;;;;;;;;;;;;;;;22.96;31.03;100774.38;5610395;31;34377;-72
2023/05/01 08:30:14;;;;;;;;;;;;;;;23.30;31.68;100780.72;5609792;31;34105;-73
2023/05/01 08:33:17;;;;;;;;;;;;;;;23.67;31.37;100778.47;5610073;31;34880;-72
2023/05/01 08:36:31;;;;;;;;;;;;;;;24.57;29.99;100784.56;5610416;31;34703;-72
2023/05/01 08:39:33;;;;;;;;;;;;;;;24.51;28.56;100774.69;5596186;31;34223;-70
2023/05/01 08:42:37;;;;;;;;;;;;;;;24.77;29.20;100780.47;5609887;31;34237;-73
2023/05/01 08:45:41;;;;;;;;;;;;;;;26.15;27.25;100777.06;5610007;31;34909;-75
2023/05/01 08:48:44;;;;;;;;;;;;;;;26.31;27.20;100769.88;5596294;31;34082;-74
2023/05/01 08:51:49;;;;;;;;;;;;;;;26.57;26.57;100768.97;5609976;31;34778;-74
2023/05/01 08:54:55;;;;;;;;;;;;;;;27.16;26.17;100766.75;5609861;31;34799;-75
2023/05/01 08:57:58;;;;;;;;;;;;;;;28.13;25.41;100761.50;5596075;31;34071;-77
2023/05/01 09:01:01;;;;;;;;;;;;;;;25.29;28.23;100762.69;5596185;31;34049;-75
2023/05/01 09:04:08;;;;;;;;;;;;;;;25.88;27.24;100771.69;5596307;31;34873;-73
2023/05/01 09:07:12;;;;;;;;;;;;;;;26.72;27.07;100769.00;5596162;31;34222;-72
2023/05/01 09:10:15;;;;;;;;;;;;;;;26.80;26.40;100770.44;5609768;31;34061;-73
2023/05/01 09:13:18;;;;;;;;;;;;;;;26.52;26.06;100765.38;5609840;31;34309;-74
2023/05/01 09:16:20;;;;;;;;;;;;;;;25.23;27.42;100754.72;5609717;31;33984;-71
2023/05/01 09:19:24;;;;;;;;;;;;;;;26.46;26.76;100761.00;5609781;31;34047;-73
2023/05/01 09:22:26;;;;;;;;;;;;;;;27.45;24.80;100758.16;5609869;31;34812;-71
2023/05/01 09:25:30;;;;;;;;;;;;;;;27.59;26.05;100751.09;5609781;31;34125;-74
2023/05/01 09:28:45;;;;;;;;;;;;;;;29.23;23.11;100754.03;5608469;31;34668;-73
2023/05/01 09:31:48;;;;;;;;;;;;;;;28.85;24.26;100750.94;5609720;31;34645;-72
2023/05/01 09:34:51;;;;;;;;;;;;;;;26.86;26.29;100747.62;5610174;31;34859;-73
2023/05/01 09:37:53;;;;;;;;;;;;;;;27.61;25.43;100746.19;5596011;31;33992;-75
2023/05/01 09:41:02;;;;;;;;;;;;;;;28.12;24.65;100759.84;5609452;31;34213;-75
2023/05/01 09:44:16;;;;;;;;;;;;;;;28.19;25.03;100744.00;5609326;31;34302;-74
2023/05/01 09:47:21;;;;;;;;;;;;;;;28.67;23.29;100750.69;5609437;31;34133;-75
2023/05/01 09:50:28;;;;;;;;;;;;;;;28.74;23.95;100743.09;5609521;31;34593;-73
2023/05/01 09:53:37;;;;;;;;;;;;;;;28.59;23.94;100748.56;5609498;31;34108;-75
2023/05/01 09:56:45;;;;;;;;;;;;;;;29.40;23.68;100734.53;5595477;31;34117;-73
2023/05/01 10:00:00;;;;;;;;;;;;;;;26.78;25.80;100729.03;5609427;31;34459;-74
2023/05/01 10:03:11;;;;;;;;;;;;;;;26.75;25.77;100721.41;5595767;31;34272;-74
2023/05/01 10:06:26;;;;;;;;;;;;;;;28.93;23.63;100725.78;5609217;31;33963;-73
2023/05/01 10:09:29;;;;;;;;;;;;;;;29.31;23.81;100723.41;5609396;31;34814;-73
2023/05/01 10:12:32;;;;;;;;;;;;;;;29.29;23.44;100723.66;5609220;31;34122;-73
2023/05/01 10:15:37;;;;;;;;;;;;;;;29.91;22.73;100732.28;5609528;31;34037;-74
2023/05/01 10:18:42;;;;;;;;;;;;;;;30.46;22.48;100720.78;5609023;31;34824;-73
2023/05/01 10:21:44;;;;;;;;;;;;;;;29.93;22.58;100724.59;5609015;31;34168;-72
2023/05/01 10:24:47;;;;;;;;;;;;;;;28.46;23.99;100709.84;5608978;31;34185;-76
2023/05/01 10:27:51;;;;;;;;;;;;;;;29.83;23.40;100710.97;5609356;31;34851;-76
2023/05/01 10:30:54;;;;;;;;;;;;;;;30.82;22.40;100707.47;5609065;31;34684;-73
2023/05/01 10:33:59;;;;;;;;;;;;;;;30.67;21.50;100699.44;5609158;31;34120;-74
2023/05/01 10:37:08;;;;;;;;;;;;;;;28.70;23.98;100696.38;5608632;31;34874;-73
2023/05/01 10:40:29;;;;;;;;;;;;;;;27.75;25.44;100691.94;5594969;31;34126;-74
2023/05/01 10:43:33;;;;;;;;;;;;;;;30.14;23.70;100688.53;5594466;31;34093;-72
2023/05/01 10:46:35;;;;;;;;;;;;;;;29.98;23.42;100681.56;5608842;31;35072;-76
2023/05/01 10:49:57;;;;;;;;;;;;;;;30.87;22.49;100688.22;5608811;31;34184;-73
2023/05/01 10:53:09;;;;;;;;;;;;;;;32.56;21.37;100688.66;5608048;31;34121;-73
2023/05/01 10:56:25;;;;;;;;;;;;;;;30.53;23.06;100669.22;5594741;31;34241;-72
2023/05/01 10:59:46;;;;;;;;;;;;;;;32.18;21.85;100679.84;5608616;31;34111;-72
2023/05/01 11:02:49;;;;;;;;;;;;;;;31.74;22.24;100668.53;5608729;31;34728;-73
2023/05/01 11:06:03;;;;;;;;;;;;;;;29.58;23.46;100665.53;5607924;31;34191;-73
2023/05/01 11:09:34;;;;;;;;;;;;;;;31.43;21.85;100663.53;5608103;31;34294;-73
2023/05/01 11:12:47;;;;;;;;;;;;;;;30.99;22.27;100652.97;5608280;31;34873;-73
2023/05/01 11:15:50;;;;;;;;;;;;;;;29.10;24.36;100662.56;5608361;31;34181;-74
2023/05/01 11:18:53;;;;;;;;;;;;;;;30.07;23.20;100651.66;5608160;31;34781;-74
2023/05/01 11:21:55;;;;;;;;;;;;;;;31.17;21.56;100650.56;5608165;31;34016;-73
2023/05/01 11:24:59;;;;;;;;;;;;;;;31.15;22.41;100647.28;5607846;31;34776;-72
2023/05/01 11:28:02;;;;;;;;;;;;;;;32.70;21.92;100648.28;5607617;31;34261;-72
2023/05/01 11:31:05;;;;;;;;;;;;;;;27.29;24.84;100640.13;5607846;31;34191;-72
2023/05/01 11:34:08;;;;;;;;;;;;;;;27.78;24.47;100628.69;5607598;31;34191;-73
2023/05/01 11:37:11;;;;;;;;;;;;;;;28.47;25.43;100629.59;5594275;31;34024;-72
2023/05/01 11:40:30;;;;;;;;;;;;;;;30.85;22.97;100638.38;5607663;31;34769;-72
2023/05/01 11:43:32;;;;;;;;;;;;;;;30.31;23.07;100633.31;5607472;31;34810;-73
2023/05/01 11:46:35;;;;;;;;;;;;;;;31.86;21.96;100622.22;5607705;31;34665;-72
2023/05/01 11:49:38;;;;;;;;;;;;;;;32.47;20.57;100624.59;5607720;31;34174;-72
2023/05/01 11:52:44;;;;;;;;;;;;;;;31.28;22.92;100613.63;5609762;31;34802;-72
2023/05/01 11:55:48;;;;;;;;;;;;;;;34.37;19.54;100629.50;5610584;31;34322;-72
2023/05/01 11:58:52;;;;;;;;;;;;;;;35.34;18.71;100619.87;5610481;31;34072;-72
2023/05/01 12:01:55;;;;;;;;;;;;;;;34.33;19.70;100611.97;5610428;31;34258;-73
2023/05/01 12:05:12;;;;;;;;;;;;;;;35.27;18.47;100614.03;5610188;31;34135;-72
2023/05/01 12:08:19;;;;;;;;;;;;;;;33.68;19.21;100611.88;5610002;31;34787;-75
2023/05/01 12:11:22;;;;;;;;;;;;;;;35.76;18.15;100614.56;5610346;31;34345;-75
2023/05/01 12:14:25;;;;;;;;;;;;;;;34.88;18.09;100610.28;5610586;31;34025;-72
2023/05/01 12:17:28;;;;;;;;;;;;;;;35.41;18.37;100602.78;5596288;31;34733;-70
2023/05/01 12:20:36;;;;;;;;;;;;;;;36.42;16.93;100604.66;5596445;31;34861;-71
2023/05/01 12:23:39;;;;;;;;;;;;;;;36.38;17.64;100590.72;5610241;31;34194;-72
2023/05/01 12:26:42;;;;;;;;;;;;;;;34.77;18.27;100597.16;5610129;31;34052;-74
2023/05/01 12:29:46;;;;;;;;;;;;;;;34.89;17.77;100589.87;5596345;31;34136;-72
2023/05/01 12:32:49;;;;;;;;;;;;;;;36.52;17.08;100591.28;5610355;31;32474;-71
2023/05/01 12:35:51;;;;;;;;;;;;;;;35.34;18.68;100575.72;5596328;31;34314;-72
2023/05/01 12:38:56;;;;;;;;;;;;;;;35.80;17.76;100572.16;5610007;31;32520;-73
2023/05/01 12:41:59;;;;;;;;;;;;;;;33.27;19.15;100573.56;5610020;31;34258;-74
2023/05/01 12:45:02;;;;;;;;;;;;;;;34.76;18.96;100570.75;5596300;31;34093;-75
2023/05/01 12:48:12;;;;;;;;;;;;;;;36.10;17.25;100573.00;5610063;31;34844;-73
2023/05/01 12:51:19;;;;;;;;;;;;;;;33.68;19.06;100563.16;5610572;31;34117;-73
2023/05/01 12:54:42;;;;;;;;;;;;;;;34.80;18.73;100571.69;5610302;31;34815;-73
2023/05/01 12:57:52;;;;;;;;;;;;;;;34.26;18.84;100556.56;5609973;31;34129;-72
2023/05/01 13:00:55;;;;;;;;;;;;;;;33.86;19.66;100542.81;5609810;31;34274;-70
2023/05/01 13:03:57;;;;;;;;;;;;;;;35.65;17.65;100534.03;5610195;31;34057;-73
2023/05/01 13:07:00;;;;;;;;;;;;;;;36.99;16.42;100539.31;5582744;31;35700;-73
2023/05/01 13:10:04;;;;;;;;;;;;;;;33.78;19.31;100537.28;5609774;31;34729;-72
2023/05/01 13:13:08;;;;;;;;;;;;;;;36.85;16.41;100543.53;5609160;31;34029;-73
2023/05/01 13:16:11;;;;;;;;;;;;;;;37.16;16.45;100543.91;5609380;31;34042;-71
2023/05/01 13:19:25;;;;;;;;;;;;;;;36.34;16.82;100537.28;5609143;31;34687;-73
2023/05/01 13:22:31;;;;;;;;;;;;;;;38.08;15.21;100524.87;5609354;31;34769;-72
2023/05/01 13:25:34;;;;;;;;;;;;;;;38.44;14.95;100521.22;5609594;31;34213;-74
2023/05/01 13:28:46;;;;;;;;;;;;;;;38.09;15.33;100517.38;5595739;31;34276;-74
2023/05/01 13:31:49;;;;;;;;;;;;;;;33.94;17.89;100510.94;5608829;31;34173;-73
2023/05/01 13:34:57;;;;;;;;;;;;;;;32.92;19.05;100514.78;5609720;31;34610;-72
2023/05/01 13:38:02;;;;;;;;;;;;;;;34.83;17.26;100513.16;5609328;31;34736;-74
2023/05/01 13:41:04;;;;;;;;;;;;;;;34.12;18.01;100512.59;5596121;31;34565;-74
2023/05/01 13:44:11;;;;;;;;;;;;;;;34.77;17.78;100497.91;5609446;31;34073;-73
2023/05/01 13:47:15;;;;;;;;;;;;;;;38.90;14.75;100497.63;5609275;31;34196;-71
2023/05/01 13:50:18;;;;;;;;;;;;;;;37.13;15.70;100494.81;5595699;31;34737;-73
2023/05/01 13:53:21;;;;;;;;;;;;;;;36.80;15.95;100494.78;5609735;31;33629;-73
2023/05/01 13:56:24;;;;;;;;;;;;;;;37.53;15.07;100492.22;5609327;31;34771;-72
2023/05/01 13:59:30;;;;;;;;;;;;;;;34.62;17.16;100487.34;5595403;31;34113;-73
2023/05/01 14:02:36;;;;;;;;;;;;;;;36.72;15.55;100487.41;5609492;31;34113;-72
2023/05/01 14:05:39;;;;;;;;;;;;;;;35.55;16.51;100482.78;5609430;31;34096;-73
2023/05/01 14:08:47;;;;;;;;;;;;;;;36.43;15.98;100484.69;5609104;31;34076;-72
2023/05/01 14:11:50;;;;;;;;;;;;;;;38.18;15.08;100473.72;5609463;31;34702;-73
2023/05/01 14:14:52;;;;;;;;;;;;;;;36.76;15.44;100471.72;5608666;31;34013;-74
2023/05/01 14:17:55;;;;;;;;;;;;;;;31.40;20.21;100468.66;5609167;31;33985;-73
2023/05/01 14:20:58;;;;;;;;;;;;;;;29.22;21.55;100458.09;5609544;31;34296;-72
2023/05/01 14:24:02;;;;;;;;;;;;;;;31.66;19.38;100455.28;5609183;31;34423;-73
2023/05/01 14:27:07;;;;;;;;;;;;;;;29.20;21.34;100448.56;5608983;31;34276;-72
2023/05/01 14:30:16;;;;;;;;;;;;;;;26.06;25.81;100444.19;5608797;31;34008;-72
2023/05/01 14:33:19;;;;;;;;;;;;;;;25.10;26.20;100443.72;5608863;31;34238;-71
2023/05/01 14:36:21;;;;;;;;;;;;;;;23.77;27.92;100440.81;5594907;31;34066;-72
2023/05/01 14:39:31;;;;;;;;;;;;;;;24.18;29.31;100436.69;5608942;31;34052;-73
2023/05/01 14:42:33;;;;;;;;;;;;;;;24.08;28.22;100441.16;5608494;31;34048;-71
2023/05/01 14:45:39;;;;;;;;;;;;;;;24.20;27.76;100433.75;5608923;31;34671;-71
2023/05/01 14:48:42;;;;;;;;;;;;;;;23.85;28.16;100427.91;5608505;31;34070;-71
2023/05/01 14:51:44;;;;;;;;;;;;;;;23.82;28.80;100430.03;5608435;31;34221;-71
2023/05/01 14:54:47;;;;;;;;;;;;;;;24.11;28.75;100419.78;5608452;31;34215;-71
2023/05/01 14:57:49;;;;;;;;;;;;;;;24.00;27.71;100418.06;5594728;31;34706;-71
2023/05/01 15:00:52;;;;;;;;;;;;;;;24.00;28.43;100415.34;5594364;31;33980;-72
2023/05/01 15:03:55;;;;;;;;;;;;;;;24.47;28.09;100412.84;5608133;31;34762;-72
2023/05/01 15:06:58;;;;;;;;;;;;;;;23.96;29.15;100413.41;5594338;31;34748;-72
2023/05/01 15:10:00;;;;;;;;;;;;;;;23.48;28.83;100419.59;5607832;31;34067;-71
2023/05/01 15:13:04;;;;;;;;;;;;;;;23.30;30.06;100416.06;5607878;31;33963;-71
2023/05/01 15:16:08;;;;;;;;;;;;;;;23.00;30.88;100415.63;5608112;31;34134;-71
2023/05/01 15:19:10;;;;;;;;;;;;;;;23.36;29.39;100412.38;5594639;31;34099;-72
2023/05/01 15:22:13;;;;;;;;;;;;;;;23.51;30.96;100413.66;5608263;31;34293;-71
2023/05/01 15:25:16;;;;;;;;;;;;;;;22.67;30.24;100411.06;5608139;31;34140;-70
2023/05/01 15:28:18;;;;;;;;;;;;;;;22.91;30.79;100407.13;5610751;31;34147;-70
2023/05/01 15:31:21;;;;;;;;;;;;;;;22.76;30.69;100406.06;5610780;31;34666;-72
2023/05/01 15:34:24;;;;;;;;;;;;;;;22.15;30.89;100404.22;5610125;31;34696;-72
2023/05/01 15:37:27;;;;;;;;;;;;;;;21.71;32.12;100401.19;5610566;31;34083;-71
2023/05/01 15:40:29;;;;;;;;;;;;;;;21.39;32.11;100398.12;5610640;31;34205;-71
2023/05/01 15:43:32;;;;;;;;;;;;;;;21.53;32.59;100395.97;5610453;31;34121;-71
2023/05/01 15:46:35;;;;;;;;;;;;;;;21.88;31.98;100399.34;5610924;31;34047;-71